Time;durP1;ratioP1;P1;durP2;ratioP2;P2;SDS_P1;SDS_P2;PMS_P1;PMS_P2;Temp;Humidity;BMP_temperature;BMP_pressure;BME280_temperature;BME280_humidity;BME280_pressure;Samples;Min_cycle;Max_cycle;Signal;HPM_P1;HPM_P2
2023/01/07 00:01:23;;;;;;;1.30;0.65;;;;;;;12.71;63.32;97630.81;5041160;28;20043;-75
2023/01/07 00:03:49;;;;;;;0.68;0.40;;;;;;;12.77;62.99;97635.06;5030057;28;20036;-76
2023/01/07 00:06:20;;;;;;;1.83;0.75;;;;;;;12.90;62.68;97626.03;5021133;28;20033;-75
2023/01/07 00:08:47;;;;;;;1.35;0.70;;;;;;;12.73;63.13;97628.75;5016108;28;20036;-76
2023/01/07 00:11:23;;;;;;;1.83;0.60;;;;;;;12.86;62.63;97622.34;5044869;28;20579;-76
2023/01/07 00:13:50;;;;;;;1.60;0.70;;;;;;;12.78;62.95;97626.19;4995829;28;20040;-76
2023/01/07 00:16:18;;;;;;;1.23;0.52;;;;;;;12.66;63.37;97610.69;5011016;28;20163;-76
2023/01/07 00:18:44;;;;;;;1.20;0.60;;;;;;;12.56;63.14;97607.97;5013386;28;20036;-76
2023/01/07 00:21:12;;;;;;;1.38;0.70;;;;;;;12.83;62.49;97615.78;5012164;28;20029;-75
2023/01/07 00:23:39;;;;;;;0.95;0.70;;;;;;;12.81;62.59;97604.78;5020059;28;20041;-76
2023/01/07 00:26:09;;;;;;;0.60;0.60;;;;;;;12.57;63.01;97606.91;5043425;28;20555;-76
2023/01/07 00:28:37;;;;;;;1.25;0.70;;;;;;;12.61;63.13;97601.97;5011506;28;20363;-75
2023/01/07 00:31:05;;;;;;;1.15;1.05;;;;;;;12.66;62.86;97597.63;5006846;28;20040;-75
2023/01/07 00:33:33;;;;;;;1.10;0.70;;;;;;;12.69;62.55;97596.31;5007885;28;20572;-76
2023/01/07 00:35:59;;;;;;;1.50;0.68;;;;;;;12.74;63.01;97598.97;5016441;28;20116;-75
2023/01/07 00:38:25;;;;;;;1.10;0.50;;;;;;;12.73;62.88;97600.81;5021038;28;20024;-76
2023/01/07 00:40:50;;;;;;;2.50;1.02;;;;;;;12.70;62.88;97593.47;5026322;28;20074;-76
2023/01/07 00:43:15;;;;;;;1.35;0.88;;;;;;;12.69;62.73;97591.88;5040305;28;20061;-76
2023/01/07 00:45:41;;;;;;;1.10;0.88;;;;;;;12.70;62.88;97588.25;5027632;28;20063;-75
2023/01/07 00:48:06;;;;;;;2.75;0.90;;;;;;;12.77;62.30;97582.81;5023482;28;20041;-76
2023/01/07 00:50:34;;;;;;;1.83;0.70;;;;;;;12.77;62.22;97588.03;5011795;28;20444;-76
2023/01/07 00:52:59;;;;;;;1.55;0.73;;;;;;;12.73;62.29;97581.72;5024725;28;20400;-75
2023/01/07 00:55:25;;;;;;;0.98;0.85;;;;;;;12.70;62.90;97582.22;5018405;28;20032;-75
2023/01/07 00:57:51;;;;;;;1.40;0.85;;;;;;;12.52;62.98;97576.31;5006414;28;20056;-76
2023/01/07 01:00:19;;;;;;;2.30;0.90;;;;;;;12.64;62.90;97578.00;5025349;28;20468;-75
2023/01/07 01:02:45;;;;;;;0.82;0.57;;;;;;;12.57;62.80;97582.63;5006916;28;20049;-76
2023/01/07 01:05:10;;;;;;;2.08;0.68;;;;;;;12.58;63.29;97574.56;5008140;28;20071;-76
2023/01/07 01:07:36;;;;;;;0.90;0.65;;;;;;;12.60;62.80;97576.91;5009995;28;20327;-75
2023/01/07 01:10:02;;;;;;;1.20;0.75;;;;;;;12.66;62.81;97581.13;5039620;28;20059;-76
2023/01/07 01:12:28;;;;;;;1.85;0.75;;;;;;;12.50;62.91;97567.94;5003317;28;20456;-76
2023/01/07 01:14:53;;;;;;;1.15;0.60;;;;;;;12.55;63.22;97575.03;5028804;28;20037;-75
2023/01/07 01:17:19;;;;;;;2.35;0.50;;;;;;;12.48;63.45;97572.63;5026439;28;20029;-76
2023/01/07 01:19:45;;;;;;;1.73;0.90;;;;;;;12.44;63.10;97568.94;5008126;28;20074;-76
2023/01/07 01:22:10;;;;;;;1.50;0.60;;;;;;;12.50;63.14;97564.53;5022416;28;20037;-76
2023/01/07 01:24:36;;;;;;;0.98;0.70;;;;;;;12.33;63.14;97567.25;5023564;28;20043;-76
2023/01/07 01:27:01;;;;;;;1.08;0.60;;;;;;;12.47;63.09;97562.41;5012103;28;20032;-76
2023/01/07 01:29:26;;;;;;;1.77;0.65;;;;;;;12.50;62.60;97561.94;5044893;28;20105;-77
2023/01/07 01:31:52;;;;;;;0.63;0.50;;;;;;;12.56;62.92;97563.56;5047564;28;20037;-76
2023/01/07 01:34:17;;;;;;;1.58;0.52;;;;;;;12.55;62.57;97559.38;5007367;28;20024;-76
2023/01/07 01:36:43;;;;;;;1.33;0.50;;;;;;;12.52;62.98;97565.06;5010003;28;20400;-75
2023/01/07 01:39:08;;;;;;;1.48;0.60;;;;;;;12.50;63.13;97561.94;5043967;28;20028;-76
2023/01/07 01:41:33;;;;;;;0.77;0.57;;;;;;;12.54;62.71;97558.59;5026176;28;20048;-76
2023/01/07 01:43:59;;;;;;;3.97;0.60;;;;;;;12.58;62.86;97571.13;5028520;28;20447;-76
2023/01/07 01:46:39;;;;;;;1.52;0.63;;;;;;;12.66;62.78;97555.81;5026488;28;20458;-76
2023/01/07 01:49:07;;;;;;;0.98;0.60;;;;;;;12.63;62.54;97556.31;5025819;28;20041;-76
2023/01/07 01:51:36;;;;;;;1.67;0.60;;;;;;;12.62;62.49;97552.09;5044168;28;20053;-76
2023/01/07 01:54:09;;;;;;;0.73;0.50;;;;;;;12.69;62.46;97552.69;5012173;28;20079;-76
2023/01/07 01:56:37;;;;;;;1.15;0.60;;;;;;;12.56;62.67;97542.66;5047533;28;20451;-75
2023/01/07 01:59:05;;;;;;;0.82;0.55;;;;;;;12.57;62.61;97544.22;5040812;28;20040;-76
2023/01/07 02:01:33;;;;;;;1.05;0.77;;;;;;;12.59;62.70;97549.22;4994266;28;20265;-76
2023/01/07 02:03:59;;;;;;;0.45;0.35;;;;;;;12.60;62.58;97550.78;5012603;28;20021;-77
2023/01/07 02:06:28;;;;;;;0.73;0.55;;;;;;;12.66;62.59;97547.19;5028331;28;20056;-76
2023/01/07 02:08:54;;;;;;;1.30;0.47;;;;;;;12.57;62.88;97546.84;5032484;28;20564;-76
2023/01/07 02:11:34;;;;;;;1.42;0.55;;;;;;;12.79;62.48;97546.00;5013267;28;20108;-76
2023/01/07 02:14:31;;;;;;;0.80;0.52;;;;;;;12.72;62.30;97543.56;5046067;28;20067;-76
2023/01/07 02:17:12;;;;;;;0.77;0.50;;;;;;;12.72;62.45;97527.91;5031930;28;20492;-76
2023/01/07 02:19:52;;;;;;;2.25;0.70;;;;;;;12.72;62.15;97527.91;5014458;28;20537;-75
2023/01/07 02:22:24;;;;;;;1.23;0.50;;;;;;;12.60;62.44;97527.28;5044386;28;20025;-76
2023/01/07 02:25:10;;;;;;;1.05;0.60;;;;;;;12.72;61.85;97525.28;5028652;28;20047;-76
2023/01/07 02:27:57;;;;;;;1.63;0.50;;;;;;;12.66;62.28;97514.03;5026565;28;20029;-75
2023/01/07 02:31:19;;;;;;;1.17;0.52;;;;;;;12.87;61.35;97524.63;5045565;28;20504;-76
2023/01/07 02:33:51;;;;;;;0.85;0.50;;;;;;;12.71;62.27;97519.28;4975730;28;20039;-76
2023/01/07 02:36:22;;;;;;;1.63;0.60;;;;;;;12.78;61.75;97519.06;4975520;28;20539;-76
2023/01/07 02:39:08;;;;;;;1.02;0.60;;;;;;;12.85;61.52;97519.66;4998547;28;20037;-76
2023/01/07 02:41:49;;;;;;;0.70;0.55;;;;;;;12.73;61.82;97519.00;5029551;28;20287;-75
2023/01/07 02:44:26;;;;;;;1.45;0.65;;;;;;;12.82;61.68;97506.31;5035797;28;20041;-76
2023/01/07 02:47:21;;;;;;;2.15;0.57;;;;;;;12.84;61.50;97505.00;5031631;28;20092;-76
2023/01/07 02:49:47;;;;;;;2.65;1.13;;;;;;;12.61;62.08;97500.91;5025158;28;20033;-76
2023/01/07 02:52:17;;;;;;;1.08;0.40;;;;;;;12.65;62.17;97496.75;5029868;28;20111;-75
2023/01/07 02:54:43;;;;;;;1.95;0.50;;;;;;;12.58;62.15;97506.63;5019398;28;20121;-76
2023/01/07 02:57:24;;;;;;;0.85;0.50;;;;;;;12.69;62.32;97491.81;5027938;28;20096;-75
2023/01/07 02:59:58;;;;;;;1.55;0.50;;;;;;;12.63;62.60;97488.38;5029454;28;20112;-76
2023/01/07 03:02:29;;;;;;;1.60;0.50;;;;;;;12.64;62.51;97483.94;5016596;28;20033;-76
2023/01/07 03:05:46;;;;;;;0.82;0.40;;;;;;;12.76;61.55;97481.16;5032706;28;20033;-76
2023/01/07 03:08:23;;;;;;;0.75;0.47;;;;;;;12.67;61.59;97483.44;4990257;28;20506;-75
2023/01/07 03:10:58;;;;;;;2.28;0.50;;;;;;;12.65;61.87;97475.09;5031813;28;20397;-76
2023/01/07 03:13:28;;;;;;;0.75;0.43;;;;;;;12.62;61.78;97472.97;5015703;28;20131;-76
2023/01/07 03:16:08;;;;;;;0.55;0.43;;;;;;;12.67;61.80;97478.22;5028208;28;20488;-76
2023/01/07 03:18:38;;;;;;;1.35;0.40;;;;;;;12.63;61.89;97464.06;5032908;28;20044;-75
2023/01/07 03:21:06;;;;;;;0.40;0.32;;;;;;;12.51;62.05;97456.44;5029412;28;20325;-76
2023/01/07 03:23:32;;;;;;;1.20;0.35;;;;;;;12.54;61.64;97467.16;5028998;28;20033;-76
2023/01/07 03:26:00;;;;;;;0.32;0.30;;;;;;;12.57;62.31;97467.69;5026989;28;20492;-76
2023/01/07 03:28:28;;;;;;;0.95;0.40;;;;;;;12.56;61.77;97459.09;5013525;28;20029;-75
2023/01/07 03:30:55;;;;;;;1.02;0.50;;;;;;;12.62;61.46;97465.13;5016780;28;20037;-76
2023/01/07 03:33:25;;;;;;;1.30;0.40;;;;;;;12.60;62.33;97461.97;5016772;28;20150;-76
2023/01/07 03:35:52;;;;;;;1.45;0.38;;;;;;;12.51;62.04;97457.22;5043426;28;20109;-76
2023/01/07 03:38:19;;;;;;;0.77;0.77;;;;;;;12.53;62.55;97456.97;5012757;28;20528;-76
2023/01/07 03:40:45;;;;;;;0.80;0.38;;;;;;;12.50;62.05;97458.25;5012569;28;20044;-76
2023/01/07 03:43:12;;;;;;;0.57;0.40;;;;;;;12.55;62.04;97453.06;4996756;28;20037;-75
2023/01/07 03:45:37;;;;;;;0.65;0.50;;;;;;;12.50;62.17;97458.25;5012354;28;20043;-76
2023/01/07 03:48:03;;;;;;;4.05;0.45;;;;;;;12.50;61.94;97453.00;4996097;28;20025;-76
2023/01/07 03:50:28;;;;;;;3.35;0.50;;;;;;;12.52;62.25;97450.16;4999848;28;20036;-77
2023/01/07 03:52:54;;;;;;;1.17;0.50;;;;;;;12.49;61.57;97448.84;5032528;28;20507;-76
2023/01/07 03:55:19;;;;;;;0.55;0.45;;;;;;;12.50;61.54;97442.56;5049329;28;20041;-76
2023/01/07 03:57:44;;;;;;;1.42;0.30;;;;;;;12.58;60.94;97432.69;5031674;28;20488;-76
2023/01/07 04:00:11;;;;;;;0.93;0.25;;;;;;;12.52;60.89;97440.47;5031966;28;20104;-75
2023/01/07 04:02:37;;;;;;;0.50;0.30;;;;;;;12.55;60.78;97434.00;5031302;28;20064;-76
2023/01/07 04:05:03;;;;;;;1.30;0.30;;;;;;;12.61;60.58;97426.97;4998838;28;20045;-76
2023/01/07 04:07:28;;;;;;;3.45;0.75;;;;;;;12.49;60.35;97425.34;5032123;28;20071;-75
2023/01/07 04:09:53;;;;;;;0.60;0.30;;;;;;;12.50;60.56;97423.50;5034054;28;20072;-76
2023/01/07 04:12:19;;;;;;;0.75;0.50;;;;;;;12.54;60.35;97424.56;5037758;28;20239;-75
2023/01/07 04:14:44;;;;;;;0.68;0.30;;;;;;;12.58;60.20;97423.03;5031575;28;20033;-75
2023/01/07 04:17:10;;;;;;;0.40;0.30;;;;;;;12.63;60.15;97424.88;5047762;28;20040;-75
2023/01/07 04:19:37;;;;;;;0.30;0.30;;;;;;;12.64;60.18;97422.03;5024717;28;20029;-76
2023/01/07 04:22:04;;;;;;;0.35;0.30;;;;;;;12.59;60.33;97418.59;5031717;28;20040;-75
2023/01/07 04:24:30;;;;;;;0.40;0.40;;;;;;;12.59;60.30;97410.75;5030841;28;20041;-76
2023/01/07 04:26:55;;;;;;;0.52;0.40;;;;;;;12.60;59.98;97407.91;5031265;28;20495;-75
2023/01/07 04:29:21;;;;;;;1.15;0.40;;;;;;;12.67;59.40;97405.06;5014592;28;20121;-75
2023/01/07 04:31:46;;;;;;;0.65;0.35;;;;;;;12.69;59.34;97403.00;5014708;28;20393;-75
2023/01/07 04:34:12;;;;;;;1.17;0.32;;;;;;;12.70;59.49;97394.91;5048581;28;20033;-75
2023/01/07 04:36:37;;;;;;;0.40;0.38;;;;;;;12.65;59.59;97394.88;5028271;28;20082;-75
2023/01/07 04:39:02;;;;;;;0.90;0.40;;;;;;;12.65;60.33;97391.47;5022903;28;20080;-76
2023/01/07 04:41:28;;;;;;;1.30;0.40;;;;;;;12.60;60.23;97388.84;5030811;28;20033;-75
2023/01/07 04:43:53;;;;;;;1.30;0.60;;;;;;;12.54;60.30;97385.38;4998404;28;20436;-75
2023/01/07 04:46:18;;;;;;;0.47;0.45;;;;;;;12.56;60.29;97385.94;5014683;28;20036;-75
2023/01/07 04:48:44;;;;;;;0.50;0.30;;;;;;;12.55;59.71;97382.53;5031288;28;20596;-75
2023/01/07 04:51:09;;;;;;;0.50;0.45;;;;;;;12.58;60.20;97376.03;5049079;28;20041;-75
2023/01/07 04:53:34;;;;;;;0.40;0.30;;;;;;;12.60;59.77;97379.16;5025603;28;20029;-76
2023/01/07 04:56:00;;;;;;;1.67;0.40;;;;;;;12.51;60.01;97373.63;5046720;28;20404;-76
2023/01/07 04:58:25;;;;;;;0.70;0.30;;;;;;;12.45;59.79;97384.28;5048855;28;20044;-76
2023/01/07 05:00:54;;;;;;;1.63;0.50;;;;;;;12.44;59.85;97373.06;5045590;28;20032;-76
2023/01/07 05:03:19;;;;;;;0.43;0.40;;;;;;;12.57;59.79;97373.66;5016487;28;20040;-75
2023/01/07 05:05:45;;;;;;;0.45;0.30;;;;;;;12.58;59.58;97370.00;5034952;28;20029;-76
2023/01/07 05:08:10;;;;;;;0.55;0.40;;;;;;;12.51;59.88;97371.03;5029792;28;20107;-75
2023/01/07 05:10:36;;;;;;;1.40;0.40;;;;;;;12.52;60.12;97369.19;5040940;28;20112;-75
2023/01/07 05:13:04;;;;;;;0.40;0.40;;;;;;;12.56;60.35;97367.66;5047840;28;20485;-75
2023/01/07 05:15:29;;;;;;;0.40;0.28;;;;;;;12.52;60.19;97361.34;5047048;28;20373;-75
2023/01/07 05:17:55;;;;;;;0.40;0.30;;;;;;;12.46;60.08;97362.38;5006793;28;20052;-75
2023/01/07 05:20:20;;;;;;;1.00;0.30;;;;;;;12.46;60.15;97363.16;5028934;28;20041;-75
2023/01/07 05:22:45;;;;;;;1.15;0.40;;;;;;;12.50;59.98;97360.81;5014296;28;20039;-75
2023/01/07 05:25:11;;;;;;;0.45;0.30;;;;;;;12.54;59.73;97354.84;5031764;28;20040;-75
2023/01/07 05:27:36;;;;;;;0.80;0.30;;;;;;;12.46;59.91;97357.94;5013959;28;20028;-76
2023/01/07 05:30:02;;;;;;;0.60;0.30;;;;;;;12.51;60.00;97344.91;4997042;28;20033;-75
2023/01/07 05:32:27;;;;;;;1.13;0.52;;;;;;;12.55;59.80;97335.50;5030148;28;20090;-75
2023/01/07 05:34:52;;;;;;;0.55;0.30;;;;;;;12.51;59.80;97339.69;5034268;28;20080;-75
2023/01/07 05:37:18;;;;;;;0.65;0.30;;;;;;;12.54;59.77;97333.97;4998553;28;20377;-76
2023/01/07 05:39:43;;;;;;;2.38;0.30;;;;;;;12.58;59.44;97328.22;5033899;28;20110;-76
2023/01/07 05:42:08;;;;;;;0.60;0.20;;;;;;;12.43;60.03;97329.69;5048306;28;20109;-76
2023/01/07 05:44:34;;;;;;;1.42;0.25;;;;;;;12.41;59.46;97331.00;5033861;28;20349;-76
2023/01/07 05:46:59;;;;;;;1.52;0.40;;;;;;;12.44;59.30;97323.47;5034409;28;20083;-75
2023/01/07 05:49:24;;;;;;;0.50;0.40;;;;;;;12.48;59.62;97332.34;5031044;28;20025;-76
2023/01/07 05:51:50;;;;;;;2.40;0.40;;;;;;;12.47;60.06;97335.22;5016131;28;20032;-76
2023/01/07 05:54:15;;;;;;;1.15;0.50;;;;;;;12.55;59.92;97327.69;5017223;28;20086;-76
2023/01/07 05:56:40;;;;;;;0.80;0.30;;;;;;;12.33;59.52;97319.97;5029145;28;20072;-76
2023/01/07 05:59:06;;;;;;;1.73;1.02;;;;;;;12.40;59.98;97332.81;5051799;28;20098;-76
2023/01/07 06:01:31;;;;;;;0.73;0.60;;;;;;;12.49;59.91;97335.72;5033382;28;20056;-76
2023/01/07 06:03:56;;;;;;;1.52;0.45;;;;;;;12.52;60.10;97328.19;5013570;28;20033;-75
2023/01/07 06:06:22;;;;;;;1.17;0.30;;;;;;;12.48;59.36;97324.50;5023866;28;20041;-76
2023/01/07 06:08:47;;;;;;;0.30;0.30;;;;;;;12.43;59.75;97327.09;5013727;28;20473;-75
2023/01/07 06:11:12;;;;;;;0.70;0.40;;;;;;;12.47;59.66;97325.53;5042616;28;20051;-75
2023/01/07 06:13:38;;;;;;;3.25;0.77;;;;;;;12.41;59.88;97313.50;5013194;28;20037;-75
2023/01/07 06:16:07;;;;;;;0.75;0.40;;;;;;;12.42;60.11;97317.69;5043441;28;20259;-75
2023/01/07 06:18:33;;;;;;;1.27;0.30;;;;;;;12.41;60.03;97313.50;5032373;28;20028;-76
2023/01/07 06:20:59;;;;;;;0.30;0.30;;;;;;;12.44;59.90;97320.03;5022347;28;20520;-76
2023/01/07 06:23:25;;;;;;;0.52;0.40;;;;;;;12.37;60.06;97315.03;5022019;28;20048;-76
2023/01/07 06:25:50;;;;;;;0.30;0.30;;;;;;;12.33;60.42;97317.38;5001186;28;20476;-76
2023/01/07 06:28:15;;;;;;;0.30;0.30;;;;;;;12.37;60.14;97315.03;5016042;28;20397;-76
2023/01/07 06:30:44;;;;;;;0.50;0.30;;;;;;;12.41;60.16;97325.78;5046129;28;20025;-76
2023/01/07 06:33:09;;;;;;;1.10;0.30;;;;;;;12.31;59.92;97316.06;5026069;28;20404;-75
2023/01/07 06:35:34;;;;;;;2.47;0.30;;;;;;;12.29;60.04;97307.69;5015070;28;20037;-76
2023/01/07 06:38:02;;;;;;;0.47;0.30;;;;;;;12.30;60.50;97314.47;5032440;28;20472;-76
2023/01/07 06:40:28;;;;;;;0.82;0.30;;;;;;;12.30;60.20;97304.03;5031504;28;20074;-75
2023/01/07 06:42:53;;;;;;;1.65;0.38;;;;;;;12.30;60.30;97306.63;5031708;28;20403;-75
2023/01/07 06:45:19;;;;;;;0.70;0.30;;;;;;;12.36;60.20;97303.03;5011995;28;20042;-76
2023/01/07 06:47:44;;;;;;;0.55;0.30;;;;;;;12.30;60.04;97301.41;5016800;28;20086;-76
2023/01/07 06:50:29;;;;;;;;;;;;;;;12.57;59.59;97296.09;5032360;28;20033;-75
2023/01/07 06:52:55;;;;;;;3.05;0.30;;;;;;;12.15;60.03;97295.06;5030426;28;19919;-75
2023/01/07 06:55:21;;;;;;;0.98;0.32;;;;;;;12.23;59.91;97287.81;5043400;28;20501;-76
2023/01/07 06:57:46;;;;;;;1.38;0.40;;;;;;;12.25;60.13;97288.34;5031097;28;20033;-76
2023/01/07 07:00:12;;;;;;;0.28;0.28;;;;;;;12.27;60.11;97291.47;5026931;28;20021;-76
2023/01/07 07:02:38;;;;;;;0.90;0.22;;;;;;;12.27;60.16;97278.41;5029744;28;20049;-75
2023/01/07 07:05:03;;;;;;;0.45;0.40;;;;;;;12.03;60.60;97276.19;5049360;28;20530;-76
2023/01/07 07:07:28;;;;;;;0.20;0.20;;;;;;;12.15;60.20;97274.19;5049582;28;20060;-76
2023/01/07 07:09:54;;;;;;;0.57;0.57;;;;;;;12.16;60.12;97274.97;5015233;28;20443;-75
2023/01/07 07:12:19;;;;;;;0.40;0.40;;;;;;;12.28;60.44;97272.16;5032238;28;20036;-76
2023/01/07 07:14:45;;;;;;;1.08;0.85;;;;;;;12.21;60.34;97276.84;5029398;28;20033;-76
2023/01/07 07:17:10;;;;;;;0.35;0.22;;;;;;;12.16;60.68;97274.97;5013227;28;20041;-76
2023/01/07 07:19:36;;;;;;;1.00;0.38;;;;;;;12.12;60.86;97274.69;5015827;28;20392;-76
2023/01/07 07:22:01;;;;;;;0.60;0.45;;;;;;;12.22;60.35;97283.59;5033509;28;20033;-75
2023/01/07 07:24:26;;;;;;;0.73;0.38;;;;;;;12.23;60.56;97278.13;5044066;28;20025;-75
2023/01/07 07:26:52;;;;;;;0.88;0.40;;;;;;;12.21;60.44;97261.94;5003489;28;20079;-75
2023/01/07 07:29:17;;;;;;;0.68;0.43;;;;;;;12.22;61.08;97270.56;5032228;28;20021;-75
2023/01/07 07:31:42;;;;;;;0.50;0.40;;;;;;;12.18;61.06;97263.25;5031841;28;20045;-76
2023/01/07 07:34:09;;;;;;;1.48;0.43;;;;;;;12.17;61.25;97255.66;5014135;28;20238;-75
2023/01/07 07:36:34;;;;;;;0.70;0.57;;;;;;;12.14;60.96;97251.72;5022019;28;20384;-75
2023/01/07 07:39:00;;;;;;;0.90;0.50;;;;;;;12.15;60.95;97244.69;5032719;28;20035;-75
2023/01/07 07:41:25;;;;;;;0.52;0.52;;;;;;;12.12;61.02;97247.81;5032216;28;20040;-75
2023/01/07 07:43:50;;;;;;;2.25;0.63;;;;;;;12.12;61.33;97240.75;5016010;28;20044;-76
2023/01/07 07:46:16;;;;;;;1.48;0.90;;;;;;;12.12;61.29;97238.16;5032031;28;20082;-75
2023/01/07 07:48:41;;;;;;;1.90;0.70;;;;;;;12.06;61.40;97239.13;5012491;28;20370;-75
2023/01/07 07:51:06;;;;;;;1.40;0.65;;;;;;;12.03;61.45;97229.22;5021302;28;20025;-75
2023/01/07 07:53:32;;;;;;;1.20;0.93;;;;;;;12.05;61.23;97227.16;5049374;28;20032;-75
2023/01/07 07:55:57;;;;;;;1.15;0.88;;;;;;;12.10;61.04;97226.41;5015425;28;20523;-76
2023/01/07 07:58:23;;;;;;;2.38;0.65;;;;;;;12.14;60.99;97230.84;5031900;28;20535;-76
2023/01/07 08:00:48;;;;;;;1.50;0.80;;;;;;;12.11;61.25;97228.72;5012164;28;20022;-74
2023/01/07 08:03:13;;;;;;;1.30;0.80;;;;;;;12.15;60.41;97229.81;5011867;28;20116;-76
2023/01/07 08:05:42;;;;;;;0.65;0.50;;;;;;;12.20;60.65;97225.66;5012507;28;20060;-76
2023/01/07 08:08:08;;;;;;;2.13;0.90;;;;;;;12.14;60.79;97215.19;5012997;28;20354;-75
2023/01/07 08:10:34;;;;;;;1.02;0.50;;;;;;;12.20;61.12;97220.44;5015491;28;20689;-75
2023/01/07 08:13:00;;;;;;;1.02;0.90;;;;;;;12.21;61.50;97219.41;4998509;28;20036;-75
2023/01/07 08:15:25;;;;;;;0.93;0.60;;;;;;;12.13;61.07;97213.63;5031574;28;20036;-75
2023/01/07 08:18:03;;;;;;;1.30;0.60;;;;;;;12.33;60.40;97212.16;5031738;28;20029;-76
2023/01/07 08:20:29;;;;;;;1.05;0.90;;;;;;;12.26;60.22;97209.00;5031717;28;20155;-75
2023/01/07 08:22:57;;;;;;;0.98;0.70;;;;;;;12.40;60.10;97204.88;5031382;28;20496;-75
2023/01/07 08:25:22;;;;;;;2.10;0.60;;;;;;;12.37;60.31;97205.38;5011492;28;20473;-76
2023/01/07 08:27:48;;;;;;;1.25;0.80;;;;;;;12.29;60.15;97216.31;5016928;28;20088;-76
2023/01/07 08:30:13;;;;;;;1.33;0.70;;;;;;;12.33;59.90;97207.69;5011733;28;20095;-75
2023/01/07 08:32:39;;;;;;;1.85;0.73;;;;;;;12.36;59.99;97204.59;4995822;28;20044;-75
2023/01/07 08:35:04;;;;;;;0.70;0.70;;;;;;;12.42;60.11;97202.00;4994782;28;20036;-76
2023/01/07 08:37:30;;;;;;;1.30;0.73;;;;;;;12.36;60.59;97186.31;5011794;28;20056;-75
2023/01/07 08:39:55;;;;;;;1.05;0.77;;;;;;;12.33;59.90;97181.59;4995106;28;20064;-75
2023/01/07 08:42:21;;;;;;;0.90;0.90;;;;;;;12.44;59.09;97182.44;5002475;28;20350;-76
2023/01/07 08:44:47;;;;;;;1.23;0.73;;;;;;;12.57;59.57;97180.38;5017410;28;20064;-76
2023/01/07 08:47:12;;;;;;;1.33;1.00;;;;;;;12.43;59.27;97178.25;5031031;28;20025;-75
2023/01/07 08:49:38;;;;;;;0.75;0.65;;;;;;;12.48;59.30;97178.25;5014991;28;20033;-75
2023/01/07 08:52:03;;;;;;;1.83;1.05;;;;;;;12.58;58.99;97174.91;5027731;28;20776;-76
2023/01/07 08:54:29;;;;;;;0.90;0.52;;;;;;;12.60;59.21;97180.66;5003543;28;20030;-75
2023/01/07 08:56:54;;;;;;;1.73;0.70;;;;;;;12.63;59.54;97168.91;5018438;28;20111;-75
2023/01/07 08:59:19;;;;;;;0.80;0.50;;;;;;;12.67;58.36;97172.59;5030897;28;20051;-75
2023/01/07 09:01:45;;;;;;;2.17;0.90;;;;;;;12.54;58.41;97172.03;5029996;28;20036;-75
2023/01/07 09:04:10;;;;;;;1.25;0.70;;;;;;;12.70;58.59;97169.47;5028720;28;20493;-74
2023/01/07 09:06:35;;;;;;;1.02;0.70;;;;;;;12.46;58.16;97161.28;5048590;28;20041;-74
2023/01/07 09:09:01;;;;;;;1.35;0.75;;;;;;;12.50;57.98;97151.91;5030892;28;20029;-74
2023/01/07 09:11:26;;;;;;;1.00;0.80;;;;;;;12.59;58.48;97157.41;5030737;28;20029;-75
2023/01/07 09:13:51;;;;;;;1.60;0.80;;;;;;;12.64;58.49;97152.97;5014394;28;20025;-74
2023/01/07 09:16:17;;;;;;;1.42;1.05;;;;;;;12.60;58.07;97151.94;4997833;28;20482;-76
2023/01/07 09:18:42;;;;;;;2.30;1.30;;;;;;;12.73;57.83;97148.03;5030915;28;20044;-76
2023/01/07 09:21:07;;;;;;;1.70;1.30;;;;;;;12.47;57.77;97147.19;5014226;28;20029;-76
2023/01/07 09:23:33;;;;;;;1.85;1.10;;;;;;;12.71;58.24;97145.69;5030297;28;20045;-76
2023/01/07 09:25:58;;;;;;;1.67;0.98;;;;;;;12.80;58.47;97145.97;5030946;28;20052;-75
2023/01/07 09:28:24;;;;;;;2.50;0.90;;;;;;;12.89;57.56;97141.78;5030862;28;20439;-76
2023/01/07 09:30:49;;;;;;;2.25;1.55;;;;;;;12.91;57.82;97131.84;5010827;28;20044;-75
2023/01/07 09:33:14;;;;;;;1.95;1.13;;;;;;;12.78;57.50;97121.91;5038355;28;20112;-76
2023/01/07 09:35:40;;;;;;;1.13;0.90;;;;;;;12.79;56.83;97126.09;5030677;28;20040;-75
2023/01/07 09:38:05;;;;;;;0.95;0.82;;;;;;;12.79;57.61;97126.09;5014092;28;20473;-75
2023/01/07 09:40:35;;;;;;;1.63;0.90;;;;;;;12.76;57.22;97124.00;5030450;28;20104;-75
2023/01/07 09:43:11;;;;;;;1.42;0.90;;;;;;;12.90;57.08;97117.25;5030150;28;20037;-76
2023/01/07 09:45:40;;;;;;;1.25;0.65;;;;;;;12.90;57.26;97117.25;5048537;28;20028;-75
2023/01/07 09:48:20;;;;;;;1.88;0.80;;;;;;;12.86;56.62;97115.41;5014159;28;20035;-76
2023/01/07 09:50:46;;;;;;;1.00;0.60;;;;;;;12.42;57.52;97121.81;5030743;28;20318;-76
2023/01/07 09:53:16;;;;;;;1.15;0.68;;;;;;;12.83;57.38;97116.69;5013846;28;20099;-76
2023/01/07 09:55:42;;;;;;;3.00;0.70;;;;;;;12.66;57.33;97116.94;5030673;28;20488;-76
2023/01/07 09:58:15;;;;;;;2.13;0.90;;;;;;;12.78;57.85;97103.63;5010574;28;20085;-76
2023/01/07 10:00:53;;;;;;;2.35;0.95;;;;;;;13.00;57.53;97108.59;5008187;28;20068;-76
2023/01/07 10:03:42;;;;;;;1.13;0.55;;;;;;;13.10;57.26;97111.22;5013398;28;20033;-76
2023/01/07 10:06:14;;;;;;;1.73;0.88;;;;;;;12.80;57.55;97101.56;5034431;28;20029;-75
2023/01/07 10:09:33;;;;;;;2.05;0.90;;;;;;;13.13;56.87;97099.47;4994467;28;20029;-76
2023/01/07 10:12:36;;;;;;;2.25;0.90;;;;;;;13.20;56.97;97105.22;4987176;28;20076;-75
2023/01/07 10:15:14;;;;;;;1.38;0.80;;;;;;;12.81;56.55;97108.31;5028821;28;20481;-76
2023/01/07 10:18:05;;;;;;;1.67;0.88;;;;;;;13.07;56.81;97103.13;5014345;28;20068;-76
2023/01/07 10:20:49;;;;;;;1.27;0.80;;;;;;;12.92;56.50;97102.06;4998514;28;20048;-75
2023/01/07 10:23:30;;;;;;;2.17;0.82;;;;;;;13.01;56.02;97091.09;5013934;28;20029;-75
2023/01/07 10:25:57;;;;;;;2.63;0.80;;;;;;;12.98;57.47;97094.25;4981597;28;20029;-74
2023/01/07 10:28:31;;;;;;;1.17;0.77;;;;;;;12.99;56.93;97093.97;5033332;28;20068;-76
2023/01/07 10:30:57;;;;;;;1.52;0.90;;;;;;;12.68;57.90;97086.13;5016665;28;20036;-75
2023/01/07 10:33:28;;;;;;;1.30;0.90;;;;;;;12.71;57.90;97074.34;5033067;28;20068;-75
2023/01/07 10:36:16;;;;;;;1.95;0.80;;;;;;;12.86;56.95;97068.34;4997126;28;20033;-75
2023/01/07 10:38:47;;;;;;;0.77;0.57;;;;;;;12.72;57.47;97061.03;5019595;28;20467;-75
2023/01/07 10:41:21;;;;;;;2.35;0.80;;;;;;;12.90;57.12;97070.19;5016427;28;20036;-75
2023/01/07 10:43:58;;;;;;;1.13;0.95;;;;;;;12.79;57.55;97060.00;5017036;28;20116;-75
2023/01/07 10:46:35;;;;;;;1.95;1.10;;;;;;;13.07;57.33;97058.69;5006547;28;20527;-76
2023/01/07 10:49:10;;;;;;;;;;;;;;;13.21;57.01;97048.47;4993265;28;20045;-76
2023/01/07 10:51:54;;;;;;;1.60;0.70;;;;;;;12.96;56.79;97054.53;5030402;28;19921;-76
2023/01/07 10:54:54;;;;;;;1.40;0.90;;;;;;;12.68;57.20;97041.72;5039571;28;20087;-74
2023/01/07 10:57:22;;;;;;;1.13;0.60;;;;;;;12.71;57.55;97041.19;4996709;28;20037;-75
2023/01/07 10:59:50;;;;;;;1.48;0.70;;;;;;;12.82;56.88;97033.38;5013352;28;20060;-75
2023/01/07 11:02:17;;;;;;;1.33;0.77;;;;;;;12.83;57.35;97032.28;5015341;28;20040;-76
2023/01/07 11:04:43;;;;;;;2.42;1.05;;;;;;;12.70;57.02;97029.16;5032932;28;20561;-74
2023/01/07 11:07:23;;;;;;;2.97;1.20;;;;;;;13.05;56.94;97024.19;5013209;28;20112;-76
2023/01/07 11:09:49;;;;;;;0.93;0.70;;;;;;;12.99;56.78;97014.78;4996890;28;20033;-75
2023/01/07 11:12:21;;;;;;;1.60;1.00;;;;;;;12.95;56.76;97006.69;4990843;28;20036;-75
2023/01/07 11:14:47;;;;;;;1.55;0.88;;;;;;;13.02;57.11;97009.03;5050205;28;20071;-75
2023/01/07 11:17:37;;;;;;;2.30;1.00;;;;;;;13.21;56.68;97002.22;4999659;28;20030;-73
2023/01/07 11:20:03;;;;;;;1.08;0.63;;;;;;;12.86;57.83;97001.19;5033230;28;20415;-76
2023/01/07 11:22:32;;;;;;;2.85;1.23;;;;;;;12.77;57.30;97002.78;5016146;28;20124;-75
2023/01/07 11:24:58;;;;;;;1.60;0.82;;;;;;;12.79;57.36;96995.47;4985253;28;20087;-76
2023/01/07 11:27:26;;;;;;;2.15;1.38;;;;;;;12.90;57.22;96997.03;5036289;28;20517;-75
2023/01/07 11:30:09;;;;;;;2.40;1.05;;;;;;;13.01;57.08;96997.78;5016248;28;20072;-75
2023/01/07 11:32:39;;;;;;;2.22;1.50;;;;;;;12.84;57.29;96989.47;5032522;28;20049;-75
2023/01/07 11:35:04;;;;;;;1.33;1.02;;;;;;;12.89;56.92;96990.22;5032258;28;20125;-75
2023/01/07 11:37:30;;;;;;;1.75;1.27;;;;;;;12.79;56.89;96985.00;5032722;28;20540;-76
2023/01/07 11:40:00;;;;;;;2.33;1.77;;;;;;;12.45;57.66;96976.94;5032091;28;20036;-74
2023/01/07 11:42:37;;;;;;;2.65;1.35;;;;;;;12.90;57.92;96972.72;5012370;28;20485;-75